SWR405 EIDW-LSZH
Flight info
| Callsign | SWR405 |
|---|---|
| Flight time | 1h 43m |
| Altitude | 33000 |
| Route | ENDEQ1E ENDEQ Q36 EPOXI L15 PIXUP/N0445F350 L15 FINMA DCT CHT DCT ITVIP DCT KONAN UL607 KOK DCT CIV DCT SUTAL DCT GTQ DCT BAMEV DCT BLM |
| Aircraft | A21N/M-SDE2E3FGHIJ1RWXYZ/LB1 |
Departure
| Time | 2026-05-07 14:52 |
|---|---|
| Airport | Dublin Airport (EIDW) |
Arrival
| Time | 2026-05-07 16:36 |
|---|---|
| Airport | Zürich Airport (LSZH) |
| Time | Latitude | Longitude | Altitude | Speed | Heading |
|---|---|---|---|---|---|
| 2026-05-07 14:10 | 53.42385 | -6.24454 | 220 ft | 0 kts | 135° |
| 2026-05-07 14:37 | 53.42400 | -6.24479 | 219 ft | 4 kts | 135° |
| 2026-05-07 14:37 | 53.42419 | -6.24511 | 216 ft | 4 kts | 135° |
| 2026-05-07 14:38 | 53.42435 | -6.24533 | 216 ft | 4 kts | 163° |
| 2026-05-07 14:38 | 53.42453 | -6.24527 | 220 ft | 4 kts | 232° |
| 2026-05-07 14:38 | 53.42457 | -6.24519 | 220 ft | 4 kts | 243° |
| 2026-05-07 14:38 | 53.42445 | -6.24559 | 220 ft | 4 kts | 243° |
| 2026-05-07 14:39 | 53.42438 | -6.24580 | 220 ft | 1 kts | 243° |
| 2026-05-07 14:42 | 53.42436 | -6.24589 | 221 ft | 2 kts | 243° |
| 2026-05-07 14:42 | 53.42425 | -6.24625 | 221 ft | 5 kts | 243° |
| 2026-05-07 14:42 | 53.42405 | -6.24685 | 220 ft | 7 kts | 237° |
| 2026-05-07 14:43 | 53.42369 | -6.24763 | 216 ft | 9 kts | 227° |
| 2026-05-07 14:43 | 53.42375 | -6.24861 | 221 ft | 10 kts | 310° |
| 2026-05-07 14:43 | 53.42443 | -6.24919 | 219 ft | 12 kts | 338° |
| 2026-05-07 14:43 | 53.42527 | -6.24980 | 216 ft | 14 kts | 336° |
| 2026-05-07 14:44 | 53.42613 | -6.25044 | 219 ft | 14 kts | 336° |
| 2026-05-07 14:44 | 53.42670 | -6.25086 | 221 ft | 7 kts | 337° |
| 2026-05-07 14:44 | 53.42703 | -6.25118 | 220 ft | 6 kts | 315° |
| 2026-05-07 14:44 | 53.42713 | -6.25178 | 223 ft | 6 kts | 258° |
| 2026-05-07 14:45 | 53.42686 | -6.25246 | 218 ft | 8 kts | 227° |
| 2026-05-07 14:45 | 53.42641 | -6.25324 | 221 ft | 11 kts | 226° |
| 2026-05-07 14:45 | 53.42583 | -6.25422 | 216 ft | 13 kts | 225° |
| 2026-05-07 14:45 | 53.42516 | -6.25535 | 216 ft | 15 kts | 227° |
| 2026-05-07 14:46 | 53.42444 | -6.25659 | 216 ft | 15 kts | 225° |
| 2026-05-07 14:46 | 53.42368 | -6.25787 | 219 ft | 16 kts | 226° |
| 2026-05-07 14:46 | 53.42289 | -6.25926 | 216 ft | 16 kts | 233° |
| 2026-05-07 14:46 | 53.42256 | -6.26112 | 216 ft | 18 kts | 276° |
| 2026-05-07 14:47 | 53.42269 | -6.26322 | 216 ft | 18 kts | 275° |
| 2026-05-07 14:47 | 53.42280 | -6.26542 | 223 ft | 20 kts | 276° |
| 2026-05-07 14:47 | 53.42293 | -6.26779 | 220 ft | 21 kts | 275° |
| 2026-05-07 14:47 | 53.42304 | -6.26985 | 216 ft | 18 kts | 275° |
| 2026-05-07 14:48 | 53.42314 | -6.27168 | 216 ft | 15 kts | 275° |
| 2026-05-07 14:48 | 53.42324 | -6.27351 | 221 ft | 17 kts | 275° |
| 2026-05-07 14:48 | 53.42336 | -6.27554 | 216 ft | 18 kts | 275° |
| 2026-05-07 14:48 | 53.42348 | -6.27776 | 220 ft | 19 kts | 275° |
| 2026-05-07 14:49 | 53.42359 | -6.27983 | 216 ft | 15 kts | 275° |
| 2026-05-07 14:49 | 53.42370 | -6.28172 | 216 ft | 17 kts | 275° |
| 2026-05-07 14:49 | 53.42381 | -6.28375 | 221 ft | 18 kts | 275° |
| 2026-05-07 14:49 | 53.42392 | -6.28583 | 216 ft | 18 kts | 275° |
| 2026-05-07 14:50 | 53.42403 | -6.28770 | 216 ft | 13 kts | 275° |
| 2026-05-07 14:50 | 53.42410 | -6.28910 | 223 ft | 10 kts | 275° |
| 2026-05-07 14:50 | 53.42394 | -6.29035 | 220 ft | 12 kts | 229° |
| 2026-05-07 14:50 | 53.42311 | -6.29075 | 222 ft | 10 kts | 174° |
| 2026-05-07 14:51 | 53.42253 | -6.29046 | 217 ft | 10 kts | 130° |
| 2026-05-07 14:51 | 53.42236 | -6.28924 | 220 ft | 13 kts | 96° |
| 2026-05-07 14:51 | 53.42208 | -6.28419 | 225 ft | 80 kts | 95° |
| 2026-05-07 14:51 | 53.42137 | -6.27108 | 215 ft | 143 kts | 96° |
| 2026-05-07 14:52 | 53.42037 | -6.25314 | 582 ft | 153 kts | 98° |
| 2026-05-07 14:52 | 53.41954 | -6.23537 | 1126 ft | 154 kts | 100° |
| 2026-05-07 14:52 | 53.41863 | -6.21712 | 1587 ft | 164 kts | 101° |
| 2026-05-07 14:52 | 53.41742 | -6.19678 | 1958 ft | 186 kts | 101° |
| 2026-05-07 14:53 | 53.41603 | -6.17419 | 2498 ft | 203 kts | 100° |
| 2026-05-07 14:53 | 53.41449 | -6.14906 | 2908 ft | 232 kts | 99° |
| 2026-05-07 14:53 | 53.41288 | -6.12067 | 3424 ft | 256 kts | 99° |
| 2026-05-07 14:53 | 53.41118 | -6.09019 | 4198 ft | 267 kts | 99° |
| 2026-05-07 14:54 | 53.40946 | -6.05909 | 5150 ft | 270 kts | 99° |
| 2026-05-07 14:54 | 53.40848 | -6.02742 | 6092 ft | 276 kts | 89° |
| 2026-05-07 14:54 | 53.41061 | -5.99520 | 6969 ft | 281 kts | 85° |
| 2026-05-07 14:54 | 53.41322 | -5.96254 | 7839 ft | 285 kts | 85° |
| 2026-05-07 14:55 | 53.41583 | -5.92944 | 8718 ft | 288 kts | 85° |
| 2026-05-07 14:55 | 53.41841 | -5.89581 | 9572 ft | 293 kts | 86° |
| 2026-05-07 14:55 | 53.42099 | -5.86156 | 10263 ft | 303 kts | 86° |
| 2026-05-07 14:55 | 53.42365 | -5.82534 | 10630 ft | 323 kts | 85° |
| 2026-05-07 14:56 | 53.42643 | -5.78685 | 11013 ft | 341 kts | 86° |
| 2026-05-07 14:56 | 53.42918 | -5.74677 | 11627 ft | 350 kts | 86° |
| 2026-05-07 14:56 | 53.43192 | -5.70599 | 12426 ft | 353 kts | 86° |
| 2026-05-07 14:56 | 53.43467 | -5.66479 | 13214 ft | 358 kts | 86° |
| 2026-05-07 14:57 | 53.43743 | -5.62309 | 13987 ft | 362 kts | 86° |
| 2026-05-07 14:57 | 53.44020 | -5.58094 | 14705 ft | 366 kts | 86° |
| 2026-05-07 14:57 | 53.44299 | -5.53833 | 15408 ft | 370 kts | 86° |
| 2026-05-07 14:57 | 53.44519 | -5.49515 | 16093 ft | 373 kts | 91° |
| 2026-05-07 14:58 | 53.44462 | -5.45109 | 16542 ft | 384 kts | 95° |
| 2026-05-07 14:58 | 53.44339 | -5.40534 | 16843 ft | 399 kts | 95° |
| 2026-05-07 14:58 | 53.44210 | -5.35840 | 17368 ft | 406 kts | 95° |
| 2026-05-07 14:58 | 53.44085 | -5.31085 | 18030 ft | 411 kts | 95° |
| 2026-05-07 14:59 | 53.43961 | -5.26277 | 18623 ft | 415 kts | 95° |
| 2026-05-07 14:59 | 53.43838 | -5.21425 | 19199 ft | 418 kts | 95° |
| 2026-05-07 14:59 | 53.43713 | -5.16601 | 19763 ft | 421 kts | 95° |
| 2026-05-07 14:59 | 53.43567 | -5.11618 | 20347 ft | 424 kts | 95° |
| 2026-05-07 15:00 | 53.43409 | -5.06735 | 20898 ft | 427 kts | 95° |
| 2026-05-07 15:00 | 53.43248 | -5.01678 | 21452 ft | 430 kts | 95° |
| 2026-05-07 15:00 | 53.43089 | -4.96719 | 21980 ft | 434 kts | 95° |
| 2026-05-07 15:00 | 53.42925 | -4.91656 | 22514 ft | 437 kts | 95° |
| 2026-05-07 15:01 | 53.42756 | -4.86550 | 23028 ft | 440 kts | 95° |
| 2026-05-07 15:01 | 53.42586 | -4.81407 | 23538 ft | 443 kts | 95° |
| 2026-05-07 15:01 | 53.42415 | -4.76225 | 23985 ft | 446 kts | 95° |
| 2026-05-07 15:01 | 53.42239 | -4.71027 | 24440 ft | 448 kts | 95° |
| 2026-05-07 15:02 | 53.42060 | -4.65805 | 24914 ft | 450 kts | 95° |
| 2026-05-07 15:02 | 53.41879 | -4.60558 | 25383 ft | 451 kts | 96° |
| 2026-05-07 15:02 | 53.41696 | -4.55309 | 25858 ft | 452 kts | 96° |
| 2026-05-07 15:02 | 53.41508 | -4.50041 | 26321 ft | 454 kts | 96° |
| 2026-05-07 15:03 | 53.41321 | -4.44750 | 26762 ft | 456 kts | 96° |
| 2026-05-07 15:03 | 53.41128 | -4.39439 | 27202 ft | 457 kts | 96° |
| 2026-05-07 15:03 | 53.40932 | -4.34139 | 27759 ft | 455 kts | 96° |
| 2026-05-07 15:03 | 53.40733 | -4.28861 | 28348 ft | 452 kts | 96° |
| 2026-05-07 15:04 | 53.40534 | -4.23610 | 28922 ft | 450 kts | 96° |
| 2026-05-07 15:04 | 53.40336 | -4.18394 | 29503 ft | 447 kts | 96° |
| 2026-05-07 15:04 | 53.40135 | -4.13204 | 30049 ft | 445 kts | 96° |
| 2026-05-07 15:04 | 53.39933 | -4.08051 | 30529 ft | 442 kts | 97° |
| 2026-05-07 15:05 | 53.39731 | -4.02926 | 30992 ft | 440 kts | 97° |
| 2026-05-07 15:05 | 53.39528 | -3.97827 | 31417 ft | 438 kts | 97° |
| 2026-05-07 15:05 | 53.39326 | -3.92814 | 31805 ft | 436 kts | 97° |
| 2026-05-07 15:05 | 53.39119 | -3.87750 | 32201 ft | 435 kts | 97° |
| 2026-05-07 15:06 | 53.38910 | -3.82709 | 32579 ft | 434 kts | 97° |
| 2026-05-07 15:06 | 53.38699 | -3.77672 | 32915 ft | 433 kts | 97° |
| 2026-05-07 15:06 | 53.38487 | -3.72645 | 33022 ft | 433 kts | 97° |
| 2026-05-07 15:06 | 53.38247 | -3.67621 | 33016 ft | 432 kts | 99° |
| 2026-05-07 15:07 | 53.37642 | -3.62728 | 33006 ft | 427 kts | 110° |
| 2026-05-07 15:07 | 53.36578 | -3.58104 | 32997 ft | 425 kts | 115° |
| 2026-05-07 15:07 | 53.34214 | -3.49066 | 32998 ft | 423 kts | 117° |
| 2026-05-07 15:08 | 53.30974 | -3.40967 | 33007 ft | 420 kts | 132° |
| 2026-05-07 15:08 | 53.27092 | -3.33686 | 33012 ft | 419 kts | 133° |
| 2026-05-07 15:09 | 53.23213 | -3.26416 | 33017 ft | 419 kts | 133° |
| 2026-05-07 15:09 | 53.19346 | -3.19118 | 33016 ft | 421 kts | 133° |
| 2026-05-07 15:10 | 53.15453 | -3.11798 | 33024 ft | 422 kts | 133° |
| 2026-05-07 15:10 | 53.11554 | -3.04497 | 33013 ft | 421 kts | 133° |
| 2026-05-07 15:11 | 53.07666 | -2.97239 | 33026 ft | 420 kts | 133° |
| 2026-05-07 15:11 | 53.03783 | -2.89996 | 33021 ft | 420 kts | 133° |
| 2026-05-07 15:12 | 52.99890 | -2.82763 | 33018 ft | 420 kts | 133° |
| 2026-05-07 15:12 | 52.95986 | -2.75531 | 33015 ft | 423 kts | 133° |
| 2026-05-07 15:13 | 52.92036 | -2.68236 | 33025 ft | 425 kts | 133° |
| 2026-05-07 15:13 | 52.88080 | -2.60952 | 33031 ft | 425 kts | 133° |
| 2026-05-07 15:14 | 52.84116 | -2.53669 | 33030 ft | 426 kts | 133° |
| 2026-05-07 15:14 | 52.80164 | -2.46439 | 33021 ft | 423 kts | 133° |
| 2026-05-07 15:15 | 52.76216 | -2.39230 | 33027 ft | 423 kts | 133° |
| 2026-05-07 15:15 | 52.72247 | -2.32009 | 33030 ft | 427 kts | 133° |
| 2026-05-07 15:16 | 52.68249 | -2.24754 | 33037 ft | 428 kts | 133° |
| 2026-05-07 15:16 | 52.64243 | -2.17519 | 33037 ft | 428 kts | 133° |
| 2026-05-07 15:17 | 52.60229 | -2.10281 | 33035 ft | 428 kts | 133° |
| 2026-05-07 15:17 | 52.56215 | -2.03062 | 33038 ft | 428 kts | 133° |
| 2026-05-07 15:18 | 52.52201 | -1.95857 | 33049 ft | 428 kts | 133° |
| 2026-05-07 15:18 | 52.48848 | -1.89863 | 33049 ft | 431 kts | 134° |
| 2026-05-07 15:19 | 52.44776 | -1.82597 | 33027 ft | 433 kts | 134° |
| 2026-05-07 15:19 | 52.40701 | -1.75343 | 33025 ft | 433 kts | 134° |
| 2026-05-07 15:20 | 52.36617 | -1.68101 | 33027 ft | 433 kts | 134° |
| 2026-05-07 15:20 | 52.32490 | -1.60931 | 33028 ft | 433 kts | 135° |
| 2026-05-07 15:21 | 52.28316 | -1.53831 | 33072 ft | 433 kts | 135° |
| 2026-05-07 15:21 | 52.24129 | -1.46705 | 33073 ft | 438 kts | 135° |
| 2026-05-07 15:22 | 52.19913 | -1.39541 | 33081 ft | 437 kts | 135° |
| 2026-05-07 15:22 | 52.15692 | -1.32405 | 33082 ft | 437 kts | 135° |
| 2026-05-07 15:23 | 52.11471 | -1.25265 | 33080 ft | 437 kts | 135° |
| 2026-05-07 15:23 | 52.07238 | -1.18154 | 33070 ft | 437 kts | 135° |
| 2026-05-07 15:24 | 52.03006 | -1.11044 | 33029 ft | 440 kts | 136° |
| 2026-05-07 15:24 | 51.98663 | -1.04002 | 33035 ft | 441 kts | 140° |
| 2026-05-07 15:25 | 51.94093 | -0.97365 | 33027 ft | 441 kts | 140° |
| 2026-05-07 15:25 | 51.89510 | -0.90763 | 33040 ft | 441 kts | 140° |
| 2026-05-07 15:26 | 51.84926 | -0.84178 | 33042 ft | 441 kts | 140° |
| 2026-05-07 15:26 | 51.80344 | -0.77590 | 33036 ft | 441 kts | 140° |
| 2026-05-07 15:27 | 51.75722 | -0.70971 | 33046 ft | 446 kts | 141° |
| 2026-05-07 15:27 | 51.71080 | -0.64343 | 33050 ft | 446 kts | 141° |
| 2026-05-07 15:28 | 51.66430 | -0.57731 | 33221 ft | 446 kts | 141° |
| 2026-05-07 15:28 | 51.64163 | -0.54309 | 33539 ft | 448 kts | 135° |
| 2026-05-07 15:28 | 51.62273 | -0.50302 | 33821 ft | 452 kts | 123° |
| 2026-05-07 15:29 | 51.60951 | -0.45716 | 34067 ft | 455 kts | 111° |
| 2026-05-07 15:29 | 51.59946 | -0.40881 | 34288 ft | 456 kts | 109° |
| 2026-05-07 15:29 | 51.58981 | -0.36015 | 34497 ft | 457 kts | 109° |
| 2026-05-07 15:29 | 51.58003 | -0.31147 | 34710 ft | 457 kts | 110° |
| 2026-05-07 15:30 | 51.57009 | -0.26298 | 34904 ft | 457 kts | 110° |
| 2026-05-07 15:30 | 51.56003 | -0.21445 | 35050 ft | 459 kts | 110° |
| 2026-05-07 15:30 | 51.53968 | -0.11707 | 35081 ft | 460 kts | 110° |
| 2026-05-07 15:31 | 51.51936 | -0.02049 | 35069 ft | 460 kts | 111° |
| 2026-05-07 15:31 | 51.49864 | 0.07716 | 35089 ft | 459 kts | 110° |
| 2026-05-07 15:32 | 51.47820 | 0.17356 | 35096 ft | 459 kts | 110° |
| 2026-05-07 15:32 | 51.45743 | 0.27105 | 35088 ft | 459 kts | 111° |
| 2026-05-07 15:33 | 51.43681 | 0.36718 | 35077 ft | 459 kts | 111° |
| 2026-05-07 15:33 | 51.41600 | 0.46388 | 35076 ft | 459 kts | 111° |
| 2026-05-07 15:34 | 51.39513 | 0.56046 | 35075 ft | 459 kts | 111° |
| 2026-05-07 15:34 | 51.37419 | 0.65688 | 35077 ft | 458 kts | 111° |
| 2026-05-07 15:35 | 51.35318 | 0.75307 | 35074 ft | 458 kts | 111° |
| 2026-05-07 15:35 | 51.33212 | 0.84928 | 35074 ft | 458 kts | 111° |
| 2026-05-07 15:36 | 51.31088 | 0.94574 | 35064 ft | 461 kts | 111° |
| 2026-05-07 15:36 | 51.28961 | 1.04235 | 35075 ft | 461 kts | 110° |
| 2026-05-07 15:37 | 51.27274 | 1.14138 | 35078 ft | 462 kts | 106° |
| 2026-05-07 15:37 | 51.25669 | 1.24083 | 35076 ft | 462 kts | 106° |
| 2026-05-07 15:38 | 51.24051 | 1.34013 | 35080 ft | 462 kts | 106° |
| 2026-05-07 15:38 | 51.22422 | 1.43939 | 35080 ft | 462 kts | 106° |
| 2026-05-07 15:39 | 51.20787 | 1.53850 | 35073 ft | 462 kts | 106° |
| 2026-05-07 15:39 | 51.19143 | 1.63740 | 35079 ft | 462 kts | 106° |
| 2026-05-07 15:40 | 51.17495 | 1.73639 | 35082 ft | 462 kts | 106° |
| 2026-05-07 15:40 | 51.15843 | 1.83523 | 35079 ft | 462 kts | 106° |
| 2026-05-07 15:41 | 51.14198 | 1.93340 | 35084 ft | 461 kts | 107° |
| 2026-05-07 15:41 | 51.12875 | 2.03312 | 35081 ft | 462 kts | 96° |
| 2026-05-07 15:42 | 51.12341 | 2.13524 | 35079 ft | 463 kts | 96° |
| 2026-05-07 15:42 | 51.11802 | 2.23728 | 35085 ft | 463 kts | 96° |
| 2026-05-07 15:43 | 51.11244 | 2.33937 | 35073 ft | 463 kts | 96° |
| 2026-05-07 15:43 | 51.10674 | 2.44119 | 35073 ft | 462 kts | 96° |
| 2026-05-07 15:44 | 51.10090 | 2.54289 | 35074 ft | 462 kts | 96° |
| 2026-05-07 15:44 | 51.09139 | 2.64347 | 35059 ft | 459 kts | 109° |
| 2026-05-07 15:45 | 51.07850 | 2.68966 | 35072 ft | 456 kts | 122° |
| 2026-05-07 15:45 | 51.06111 | 2.73170 | 35076 ft | 455 kts | 127° |
| 2026-05-07 15:45 | 51.02470 | 2.81395 | 35078 ft | 455 kts | 127° |
| 2026-05-07 15:46 | 50.97052 | 2.93792 | 35078 ft | 456 kts | 127° |
| 2026-05-07 15:47 | 50.93448 | 3.02054 | 35073 ft | 456 kts | 127° |
| 2026-05-07 15:47 | 50.89835 | 3.10299 | 35073 ft | 455 kts | 127° |
| 2026-05-07 15:48 | 50.86216 | 3.18537 | 35073 ft | 455 kts | 127° |
| 2026-05-07 15:48 | 50.82594 | 3.26763 | 35058 ft | 456 kts | 127° |
| 2026-05-07 15:49 | 50.78952 | 3.34996 | 35073 ft | 458 kts | 127° |
| 2026-05-07 15:49 | 50.75299 | 3.43237 | 35071 ft | 458 kts | 127° |
| 2026-05-07 15:50 | 50.71640 | 3.51460 | 35073 ft | 458 kts | 127° |
| 2026-05-07 15:50 | 50.67973 | 3.59680 | 35076 ft | 458 kts | 127° |
| 2026-05-07 15:51 | 50.64301 | 3.67877 | 35076 ft | 458 kts | 127° |
| 2026-05-07 15:51 | 50.60624 | 3.76069 | 35072 ft | 458 kts | 127° |
| 2026-05-07 15:52 | 50.56970 | 3.84274 | 35060 ft | 459 kts | 125° |
| 2026-05-07 15:52 | 50.53482 | 3.92687 | 35071 ft | 459 kts | 125° |
| 2026-05-07 15:53 | 50.49998 | 4.01109 | 35069 ft | 460 kts | 125° |
| 2026-05-07 15:53 | 50.46526 | 4.09459 | 35075 ft | 460 kts | 125° |
| 2026-05-07 15:54 | 50.43032 | 4.17848 | 35077 ft | 460 kts | 125° |
| 2026-05-07 15:54 | 50.39528 | 4.26230 | 35076 ft | 460 kts | 125° |
| 2026-05-07 15:55 | 50.35992 | 4.34658 | 35077 ft | 460 kts | 125° |
| 2026-05-07 15:55 | 50.32477 | 4.43008 | 35075 ft | 460 kts | 125° |
| 2026-05-07 15:56 | 50.28971 | 4.51317 | 35074 ft | 461 kts | 125° |
| 2026-05-07 15:56 | 50.25415 | 4.59722 | 35067 ft | 461 kts | 126° |
| 2026-05-07 15:57 | 50.21898 | 4.67994 | 35065 ft | 460 kts | 126° |
| 2026-05-07 15:57 | 50.18351 | 4.76307 | 35068 ft | 460 kts | 126° |
| 2026-05-07 15:58 | 50.14803 | 4.84607 | 35066 ft | 460 kts | 126° |
| 2026-05-07 15:58 | 50.11247 | 4.92897 | 35058 ft | 460 kts | 126° |
| 2026-05-07 15:59 | 50.07683 | 5.01177 | 35055 ft | 460 kts | 126° |
| 2026-05-07 15:59 | 50.04112 | 5.09454 | 35058 ft | 461 kts | 126° |
| 2026-05-07 16:00 | 50.00536 | 5.17724 | 35055 ft | 461 kts | 126° |
| 2026-05-07 16:00 | 49.96953 | 5.25971 | 35057 ft | 461 kts | 126° |
| 2026-05-07 16:01 | 49.93361 | 5.34212 | 35052 ft | 460 kts | 126° |
| 2026-05-07 16:01 | 49.89769 | 5.42433 | 35052 ft | 460 kts | 126° |
| 2026-05-07 16:02 | 49.86166 | 5.50646 | 35047 ft | 460 kts | 126° |
| 2026-05-07 16:02 | 49.82558 | 5.58846 | 35044 ft | 461 kts | 126° |
| 2026-05-07 16:03 | 49.78947 | 5.67034 | 35047 ft | 460 kts | 126° |
| 2026-05-07 16:03 | 49.75331 | 5.75203 | 35048 ft | 460 kts | 126° |
| 2026-05-07 16:04 | 49.71713 | 5.83366 | 35046 ft | 460 kts | 126° |
| 2026-05-07 16:04 | 49.68114 | 5.91468 | 35048 ft | 461 kts | 126° |
| 2026-05-07 16:05 | 49.64478 | 5.99614 | 35051 ft | 461 kts | 126° |
| 2026-05-07 16:05 | 49.60831 | 6.07749 | 35053 ft | 461 kts | 126° |
| 2026-05-07 16:06 | 49.57777 | 6.14554 | 35042 ft | 461 kts | 126° |
| 2026-05-07 16:06 | 49.54126 | 6.22661 | 35052 ft | 461 kts | 126° |
| 2026-05-07 16:07 | 49.50461 | 6.30775 | 35050 ft | 462 kts | 126° |
| 2026-05-07 16:07 | 49.46456 | 6.38367 | 35046 ft | 459 kts | 141° |
| 2026-05-07 16:07 | 49.43808 | 6.41169 | 35047 ft | 456 kts | 154° |
| 2026-05-07 16:08 | 49.40940 | 6.43221 | 35053 ft | 455 kts | 159° |
| 2026-05-07 16:08 | 49.35125 | 6.47053 | 35048 ft | 455 kts | 159° |
| 2026-05-07 16:09 | 49.29369 | 6.50921 | 35040 ft | 455 kts | 159° |
| 2026-05-07 16:09 | 49.23581 | 6.54843 | 35040 ft | 455 kts | 158° |
| 2026-05-07 16:10 | 49.17792 | 6.58753 | 35041 ft | 455 kts | 159° |
| 2026-05-07 16:10 | 49.12004 | 6.62652 | 35041 ft | 455 kts | 159° |
| 2026-05-07 16:11 | 49.06187 | 6.66559 | 35042 ft | 458 kts | 159° |
| 2026-05-07 16:11 | 49.00346 | 6.70474 | 35044 ft | 459 kts | 159° |
| 2026-05-07 16:12 | 48.94440 | 6.74121 | 35044 ft | 458 kts | 161° |
| 2026-05-07 16:12 | 48.88503 | 6.77639 | 35043 ft | 458 kts | 161° |
| 2026-05-07 16:13 | 48.82569 | 6.81149 | 35041 ft | 458 kts | 161° |
| 2026-05-07 16:13 | 48.76632 | 6.84650 | 35044 ft | 458 kts | 161° |
| 2026-05-07 16:14 | 48.70698 | 6.88152 | 35047 ft | 458 kts | 161° |
| 2026-05-07 16:14 | 48.64761 | 6.91641 | 35047 ft | 458 kts | 161° |
| 2026-05-07 16:15 | 48.58821 | 6.95123 | 35048 ft | 458 kts | 161° |
| 2026-05-07 16:15 | 48.52879 | 6.98594 | 35046 ft | 458 kts | 161° |
| 2026-05-07 16:16 | 48.46936 | 7.02059 | 34976 ft | 455 kts | 161° |
| 2026-05-07 16:16 | 48.43989 | 7.03773 | 34606 ft | 456 kts | 161° |
| 2026-05-07 16:16 | 48.41020 | 7.05498 | 34298 ft | 458 kts | 161° |
| 2026-05-07 16:16 | 48.38048 | 7.07225 | 33675 ft | 457 kts | 161° |
| 2026-05-07 16:17 | 48.35078 | 7.08949 | 32894 ft | 458 kts | 161° |
| 2026-05-07 16:17 | 48.32108 | 7.10668 | 32113 ft | 458 kts | 161° |
| 2026-05-07 16:17 | 48.29171 | 7.12367 | 31328 ft | 459 kts | 161° |
| 2026-05-07 16:17 | 48.26189 | 7.14091 | 30555 ft | 459 kts | 161° |
| 2026-05-07 16:18 | 48.23169 | 7.15835 | 29706 ft | 459 kts | 161° |
| 2026-05-07 16:18 | 48.20187 | 7.17553 | 28855 ft | 459 kts | 161° |
| 2026-05-07 16:18 | 48.17212 | 7.19264 | 28146 ft | 455 kts | 161° |
| 2026-05-07 16:18 | 48.14276 | 7.20952 | 27431 ft | 451 kts | 161° |
| 2026-05-07 16:19 | 48.11352 | 7.22631 | 26714 ft | 448 kts | 161° |
| 2026-05-07 16:19 | 48.08497 | 7.24268 | 26024 ft | 444 kts | 161° |
| 2026-05-07 16:19 | 48.05628 | 7.25911 | 25341 ft | 440 kts | 161° |
| 2026-05-07 16:19 | 48.02781 | 7.27539 | 24676 ft | 436 kts | 161° |
| 2026-05-07 16:20 | 47.99958 | 7.29151 | 23982 ft | 433 kts | 161° |
| 2026-05-07 16:20 | 47.97159 | 7.30748 | 23240 ft | 429 kts | 161° |
| 2026-05-07 16:20 | 47.94382 | 7.32332 | 22484 ft | 425 kts | 161° |
| 2026-05-07 16:20 | 47.91624 | 7.33903 | 21740 ft | 422 kts | 161° |
| 2026-05-07 16:21 | 47.88899 | 7.35452 | 21050 ft | 417 kts | 161° |
| 2026-05-07 16:21 | 47.86211 | 7.36978 | 20431 ft | 410 kts | 161° |
| 2026-05-07 16:21 | 47.83590 | 7.38465 | 20108 ft | 397 kts | 161° |
| 2026-05-07 16:21 | 47.81015 | 7.39927 | 20013 ft | 395 kts | 161° |
| 2026-05-07 16:22 | 47.78447 | 7.41381 | 20000 ft | 395 kts | 161° |
| 2026-05-07 16:22 | 47.75877 | 7.42836 | 20004 ft | 395 kts | 161° |
| 2026-05-07 16:22 | 47.73306 | 7.44289 | 20019 ft | 395 kts | 161° |
| 2026-05-07 16:22 | 47.70737 | 7.45739 | 20015 ft | 395 kts | 161° |
| 2026-05-07 16:23 | 47.68167 | 7.47197 | 20020 ft | 395 kts | 160° |
| 2026-05-07 16:23 | 47.65714 | 7.49047 | 20008 ft | 398 kts | 148° |
| 2026-05-07 16:23 | 47.63608 | 7.51708 | 19723 ft | 397 kts | 134° |
| 2026-05-07 16:23 | 47.62048 | 7.55095 | 18817 ft | 402 kts | 118° |
| 2026-05-07 16:24 | 47.61030 | 7.58997 | 17710 ft | 410 kts | 110° |
| 2026-05-07 16:24 | 47.60139 | 7.63033 | 16713 ft | 412 kts | 109° |
| 2026-05-07 16:24 | 47.59244 | 7.67042 | 15954 ft | 408 kts | 110° |
| 2026-05-07 16:24 | 47.58333 | 7.71001 | 15216 ft | 404 kts | 110° |
| 2026-05-07 16:25 | 47.57424 | 7.74901 | 14513 ft | 399 kts | 111° |
| 2026-05-07 16:25 | 47.56517 | 7.78765 | 13900 ft | 393 kts | 111° |
| 2026-05-07 16:25 | 47.55630 | 7.82519 | 13550 ft | 379 kts | 111° |
| 2026-05-07 16:25 | 47.54779 | 7.86129 | 13290 ft | 364 kts | 111° |
| 2026-05-07 16:26 | 47.53963 | 7.89588 | 13076 ft | 349 kts | 111° |
| 2026-05-07 16:26 | 47.53175 | 7.92919 | 12876 ft | 335 kts | 111° |
| 2026-05-07 16:26 | 47.52417 | 7.96108 | 12687 ft | 322 kts | 111° |
| 2026-05-07 16:26 | 47.51709 | 7.99190 | 12423 ft | 312 kts | 107° |
| 2026-05-07 16:27 | 47.51527 | 8.02367 | 11890 ft | 314 kts | 82° |
| 2026-05-07 16:27 | 47.52308 | 8.05364 | 11374 ft | 314 kts | 54° |
| 2026-05-07 16:27 | 47.53882 | 8.07520 | 10984 ft | 307 kts | 31° |
| 2026-05-07 16:27 | 47.55705 | 8.09117 | 10577 ft | 303 kts | 28° |
| 2026-05-07 16:28 | 47.57520 | 8.10676 | 10168 ft | 300 kts | 28° |
| 2026-05-07 16:28 | 47.59309 | 8.12254 | 9723 ft | 298 kts | 29° |
| 2026-05-07 16:28 | 47.61065 | 8.13836 | 9296 ft | 291 kts | 30° |
| 2026-05-07 16:28 | 47.62630 | 8.15644 | 8987 ft | 281 kts | 44° |
| 2026-05-07 16:29 | 47.63956 | 8.17702 | 8697 ft | 271 kts | 46° |
| 2026-05-07 16:29 | 47.65227 | 8.19744 | 8255 ft | 269 kts | 46° |
| 2026-05-07 16:29 | 47.66490 | 8.21777 | 7764 ft | 267 kts | 47° |
| 2026-05-07 16:29 | 47.67562 | 8.24064 | 7138 ft | 278 kts | 62° |
| 2026-05-07 16:30 | 47.68211 | 8.26763 | 6549 ft | 278 kts | 81° |
| 2026-05-07 16:30 | 47.68081 | 8.29555 | 6083 ft | 271 kts | 115° |
| 2026-05-07 16:30 | 47.66930 | 8.31727 | 6005 ft | 270 kts | 146° |
| 2026-05-07 16:30 | 47.65223 | 8.32711 | 5937 ft | 265 kts | 178° |
| 2026-05-07 16:31 | 47.63393 | 8.32620 | 5577 ft | 261 kts | 184° |
| 2026-05-07 16:31 | 47.61637 | 8.33102 | 5251 ft | 259 kts | 154° |
| 2026-05-07 16:31 | 47.60329 | 8.34839 | 4907 ft | 252 kts | 122° |
| 2026-05-07 16:31 | 47.59513 | 8.37089 | 4535 ft | 243 kts | 117° |
| 2026-05-07 16:32 | 47.58639 | 8.39179 | 4161 ft | 234 kts | 128° |
| 2026-05-07 16:32 | 47.57584 | 8.40942 | 3850 ft | 222 kts | 137° |
| 2026-05-07 16:32 | 47.56469 | 8.42339 | 3646 ft | 198 kts | 137° |
| 2026-05-07 16:32 | 47.55511 | 8.43647 | 3445 ft | 179 kts | 137° |
| 2026-05-07 16:33 | 47.54654 | 8.44819 | 3235 ft | 156 kts | 137° |
| 2026-05-07 16:33 | 47.53900 | 8.45852 | 2984 ft | 143 kts | 138° |
| 2026-05-07 16:33 | 47.53177 | 8.46840 | 2779 ft | 141 kts | 137° |
| 2026-05-07 16:33 | 47.52453 | 8.47827 | 2592 ft | 142 kts | 138° |
| 2026-05-07 16:34 | 47.51730 | 8.48812 | 2402 ft | 141 kts | 137° |
| 2026-05-07 16:34 | 47.51003 | 8.49799 | 2184 ft | 143 kts | 136° |
| 2026-05-07 16:34 | 47.50276 | 8.50794 | 2024 ft | 142 kts | 136° |
| 2026-05-07 16:34 | 47.49547 | 8.51784 | 1836 ft | 141 kts | 135° |
| 2026-05-07 16:35 | 47.48829 | 8.52767 | 1641 ft | 139 kts | 135° |
| 2026-05-07 16:35 | 47.48119 | 8.53741 | 1443 ft | 140 kts | 135° |
| 2026-05-07 16:35 | 47.47461 | 8.54633 | 1398 ft | 100 kts | 137° |
| 2026-05-07 16:35 | 47.47117 | 8.55098 | 1398 ft | 50 kts | 137° |
| 2026-05-07 16:36 | 47.46862 | 8.55446 | 1400 ft | 49 kts | 136° |
| 2026-05-07 16:36 | 47.46703 | 8.55642 | 1403 ft | 18 kts | 160° |
| 2026-05-07 16:36 | 47.46583 | 8.55681 | 1405 ft | 14 kts | 165° |
| 2026-05-07 16:36 | 47.46482 | 8.55714 | 1405 ft | 16 kts | 167° |
| 2026-05-07 16:37 | 47.46388 | 8.55743 | 1408 ft | 9 kts | 156° |
| 2026-05-07 16:37 | 47.46340 | 8.55811 | 1412 ft | 11 kts | 132° |
| 2026-05-07 16:37 | 47.46280 | 8.55896 | 1407 ft | 10 kts | 135° |
| 2026-05-07 16:37 | 47.46223 | 8.55974 | 1413 ft | 10 kts | 138° |
| 2026-05-07 16:38 | 47.46150 | 8.55998 | 1412 ft | 11 kts | 181° |
| 2026-05-07 16:38 | 47.46062 | 8.55984 | 1412 ft | 14 kts | 183° |
| 2026-05-07 16:38 | 47.45992 | 8.55973 | 1411 ft | 9 kts | 186° |
| 2026-05-07 16:38 | 47.45939 | 8.55909 | 1413 ft | 12 kts | 256° |
| 2026-05-07 16:39 | 47.45945 | 8.55798 | 1410 ft | 7 kts | 275° |
| 2026-05-07 16:39 | 47.45951 | 8.55718 | 1412 ft | 8 kts | 276° |
| 2026-05-07 16:39 | 47.45957 | 8.55646 | 1407 ft | 6 kts | 274° |
| 2026-05-07 16:39 | 47.45971 | 8.55589 | 1411 ft | 6 kts | 324° |
| 2026-05-07 16:40 | 47.46018 | 8.55582 | 1405 ft | 8 kts | 6° |
| 2026-05-07 16:40 | 47.46048 | 8.55588 | 1406 ft | 0 kts | 5° |